createdAt,value
2022-10-22T00:03:27.912Z,1.47
2022-10-22T00:07:10.602Z,1.93
2022-10-22T00:11:03.083Z,1.50
2022-10-22T00:14:47.297Z,1.50
2022-10-22T00:18:30.083Z,1.80
2022-10-22T00:22:13.474Z,1.80
2022-10-22T00:26:11.797Z,2.00
2022-10-22T00:29:55.825Z,1.90
2022-10-22T00:33:38.487Z,2.53
2022-10-22T00:37:21.203Z,1.90
2022-10-22T00:41:16.837Z,2.10
2022-10-22T00:45:19.076Z,1.73
2022-10-22T00:49:05.918Z,1.60
2022-10-22T00:52:48.918Z,1.17
2022-10-22T00:56:32.035Z,1.27
2022-10-22T01:00:17.479Z,1.07
2022-10-22T01:04:00.569Z,1.10
2022-10-22T01:07:47.106Z,1.20
2022-10-22T01:11:36.003Z,1.23
2022-10-22T01:15:24.362Z,0.90
2022-10-22T01:19:21.339Z,1.10
2022-10-22T01:23:12.189Z,0.90
2022-10-22T01:27:36.787Z,1.10
2022-10-22T01:31:23.222Z,0.90
2022-10-22T01:35:09.063Z,1.03
2022-10-22T01:38:52.510Z,1.30
2022-10-22T01:42:35.154Z,0.93
2022-10-22T01:46:18.465Z,0.83
2022-10-22T01:50:17.288Z,1.03
2022-10-22T01:54:03.515Z,0.90
2022-10-22T01:57:54.254Z,1.10
2022-10-22T02:01:42.827Z,1.20
2022-10-22T02:05:31.532Z,0.93
2022-10-22T02:09:15.225Z,0.97
2022-10-22T02:12:58.648Z,1.00
2022-10-22T02:16:43.670Z,1.10
2022-10-22T02:20:32.910Z,1.53
2022-10-22T02:24:15.654Z,0.90
2022-10-22T02:28:04.027Z,1.10
2022-10-22T02:31:48.183Z,1.30
2022-10-22T02:35:32.554Z,0.93
2022-10-22T02:42:59.974Z,0.90
2022-10-22T02:46:44.474Z,0.97
2022-10-22T02:50:27.640Z,1.10
2022-10-22T02:54:11.793Z,0.77
2022-10-22T02:57:54.430Z,0.90
2022-10-22T03:01:37.132Z,1.10
2022-10-22T03:05:19.918Z,1.00
2022-10-22T03:09:02.838Z,0.70
2022-10-22T03:12:47.442Z,0.93
2022-10-22T03:16:30.296Z,0.90
2022-10-22T03:20:13.069Z,0.90
2022-10-22T03:23:56.337Z,0.70
2022-10-22T03:27:51.866Z,0.70
2022-10-22T03:31:34.542Z,0.80
2022-10-22T03:35:17.284Z,0.80
2022-10-22T03:39:00.359Z,0.83
2022-10-22T03:43:02.373Z,0.60
2022-10-22T03:46:48.167Z,0.90
2022-10-22T03:50:30.884Z,0.80
2022-10-22T03:54:13.705Z,0.80
2022-10-22T03:58:06.935Z,0.63
2022-10-22T04:01:49.558Z,0.60
2022-10-22T04:05:36.455Z,0.80
2022-10-22T04:09:19.171Z,0.70
2022-10-22T04:13:12.353Z,0.70
2022-10-22T04:16:56.123Z,0.70
2022-10-22T04:20:38.753Z,0.60
2022-10-22T04:24:21.410Z,0.70
2022-10-22T04:28:17.362Z,0.73
2022-10-22T04:32:00.032Z,0.73
2022-10-22T04:35:42.920Z,0.80
2022-10-22T04:39:25.559Z,0.70
2022-10-22T04:43:29.703Z,0.70
2022-10-22T04:47:12.420Z,0.63
2022-10-22T04:50:55.045Z,0.60
2022-10-22T04:54:37.703Z,0.50
2022-10-22T04:58:38.247Z,0.43
2022-10-22T05:02:20.884Z,0.43
2022-10-22T05:06:03.627Z,0.47
2022-10-22T05:09:46.339Z,0.57
2022-10-22T05:13:40.800Z,0.50
2022-10-22T05:17:23.476Z,0.50
2022-10-22T05:21:08.859Z,0.50
2022-10-22T05:24:51.485Z,0.50
2022-10-22T05:28:34.781Z,1.47
2022-10-22T05:32:18.802Z,0.40
2022-10-22T05:36:01.952Z,0.40
2022-10-22T05:39:45.784Z,0.30
2022-10-22T05:43:34.197Z,0.30
2022-10-22T05:47:18.206Z,0.70
2022-10-22T05:51:04.498Z,0.30
2022-10-22T05:54:47.144Z,0.47
2022-10-22T05:58:42.704Z,0.43
2022-10-22T06:02:26.794Z,0.30
2022-10-22T06:06:19.864Z,0.50
2022-10-22T06:10:02.953Z,0.43
2022-10-22T06:13:48.984Z,0.47
2022-10-22T06:17:33.006Z,0.70
2022-10-22T06:21:16.774Z,0.40
2022-10-22T06:24:59.489Z,0.47
2022-10-22T06:28:42.140Z,0.40
2022-10-22T06:32:24.827Z,0.77
2022-10-22T06:36:11.133Z,0.50
2022-10-22T06:39:53.783Z,0.40
2022-10-22T06:43:36.587Z,0.50
2022-10-22T06:47:19.258Z,0.40
2022-10-22T06:51:03.024Z,0.43
2022-10-22T06:54:47.004Z,0.40
2022-10-22T06:58:29.668Z,0.60
2022-10-22T07:02:12.339Z,0.50
2022-10-22T07:06:00.553Z,0.40
2022-10-22T07:09:45.522Z,0.60
2022-10-22T07:13:29.555Z,0.37
2022-10-22T07:17:12.168Z,0.40
2022-10-22T07:20:54.826Z,0.50
2022-10-22T07:24:37.619Z,0.50
2022-10-22T07:28:20.576Z,0.50
2022-10-22T07:32:04.642Z,0.50
2022-10-22T07:35:47.351Z,0.50
2022-10-22T07:39:30.190Z,0.40
2022-10-22T07:43:12.848Z,0.57
2022-10-22T07:46:55.620Z,0.70
2022-10-22T07:50:39.679Z,0.60
2022-10-22T07:54:22.503Z,0.60
2022-10-22T07:58:05.316Z,0.60
2022-10-22T08:01:50.059Z,0.47
2022-10-22T08:05:33.031Z,0.53
2022-10-22T08:09:17.414Z,0.50
2022-10-22T08:13:00.238Z,0.60
2022-10-22T08:16:42.938Z,0.50
2022-10-22T08:20:25.606Z,0.50
2022-10-22T08:24:08.984Z,0.57
2022-10-22T08:27:52.999Z,22.67
2022-10-22T08:31:36.092Z,0.70
2022-10-22T08:35:18.984Z,0.70
2022-10-22T08:39:01.658Z,0.60
2022-10-22T08:43:16.752Z,0.93
2022-10-22T08:47:22.360Z,0.80
2022-10-22T08:51:05.437Z,0.90
2022-10-22T08:54:52.838Z,0.73
2022-10-22T08:58:40.825Z,0.80
2022-10-22T09:02:36.330Z,0.90
2022-10-22T09:06:21.933Z,1.20
2022-10-22T09:10:05.192Z,1.07
2022-10-22T09:13:48.322Z,1.10
2022-10-22T09:17:37.500Z,0.80
2022-10-22T09:21:27.727Z,0.70
2022-10-22T09:25:17.474Z,0.60
2022-10-22T09:29:01.375Z,21.73
2022-10-22T09:32:45.669Z,9.27
2022-10-22T09:36:30.096Z,1.37
2022-10-22T09:40:15.974Z,0.83
2022-10-22T09:43:59.235Z,0.73
2022-10-22T09:48:00.666Z,1.03
2022-10-22T09:51:53.392Z,0.60
2022-10-22T09:55:36.027Z,0.87
2022-10-22T09:59:20.865Z,0.87
2022-10-22T10:03:03.668Z,0.70
2022-10-22T10:06:46.532Z,2.97
2022-10-22T10:10:37.211Z,1.07
2022-10-22T10:14:25.323Z,1.20
2022-10-22T10:18:15.467Z,1.10
2022-10-22T10:22:06.140Z,1.07
2022-10-22T10:25:57.891Z,1.10
2022-10-22T10:29:45.876Z,1.43
2022-10-22T10:33:39.066Z,1.00
2022-10-22T10:37:23.652Z,1.33
2022-10-22T10:41:17.472Z,1.13
2022-10-22T10:45:06.492Z,1.17
2022-10-22T10:48:55.913Z,0.90
2022-10-22T10:52:44.447Z,1.00
2022-10-22T10:56:39.178Z,0.90
2022-10-22T11:00:23.142Z,0.93
2022-10-22T11:04:21.527Z,0.80
2022-10-22T11:08:06.606Z,0.93
2022-10-22T11:11:55.063Z,0.80
2022-10-22T11:15:39.027Z,1.10
2022-10-22T11:19:49.648Z,1.00
2022-10-22T11:23:33.237Z,0.90
2022-10-22T11:27:24.005Z,0.90
2022-10-22T11:31:12.654Z,0.80
2022-10-22T11:34:57.440Z,0.87
2022-10-22T11:38:40.232Z,0.60
2022-10-22T11:42:33.475Z,0.80
2022-10-22T11:46:28.772Z,0.63
2022-10-22T11:50:21.610Z,0.43
2022-10-22T11:54:31.483Z,0.60
2022-10-22T11:58:39.111Z,0.70
2022-10-22T12:02:35.533Z,0.70
2022-10-22T12:06:21.048Z,1.20
2022-10-22T12:10:07.304Z,0.80
2022-10-22T12:14:16.084Z,0.60
2022-10-22T12:18:01.168Z,0.80
2022-10-22T12:21:48.483Z,0.60
2022-10-22T12:25:35.636Z,0.77
2022-10-22T12:29:25.568Z,0.70
2022-10-22T12:33:18.031Z,0.83
2022-10-22T12:37:01.024Z,0.73
2022-10-22T12:40:47.473Z,0.60
2022-10-22T12:44:33.718Z,0.80
2022-10-22T12:48:18.958Z,0.50
2022-10-22T12:52:02.596Z,1.00
2022-10-22T12:55:47.474Z,0.93
2022-10-22T12:59:34.126Z,0.60
2022-10-22T13:03:28.113Z,0.70
2022-10-22T13:07:22.126Z,0.77
2022-10-22T13:11:09.310Z,0.60
2022-10-22T13:14:53.316Z,1.07
2022-10-22T13:18:35.995Z,0.77
2022-10-22T13:22:35.206Z,0.77
2022-10-22T13:26:18.968Z,0.90
2022-10-22T13:30:04.999Z,0.87
2022-10-22T13:33:53.332Z,1.83
2022-10-22T13:37:37.823Z,0.90
2022-10-22T13:41:22.322Z,0.90
2022-10-22T13:45:07.173Z,0.80
2022-10-22T13:48:50.962Z,0.87
2022-10-22T13:52:37.221Z,1.10
2022-10-22T13:56:20.970Z,0.87
2022-10-22T14:00:03.762Z,0.90
2022-10-22T14:03:48.430Z,0.90
2022-10-22T14:07:31.143Z,1.10
2022-10-22T14:11:14.143Z,0.90
2022-10-22T14:18:40.367Z,1.07
2022-10-22T14:22:26.177Z,1.00
2022-10-22T14:26:20.869Z,0.83
2022-10-22T14:30:03.523Z,0.93
2022-10-22T14:33:46.562Z,1.00
2022-10-22T14:37:30.684Z,1.00
2022-10-22T14:41:18.955Z,0.80
2022-10-22T14:45:01.648Z,0.87
2022-10-22T14:48:44.907Z,0.80
2022-10-22T14:52:27.646Z,1.00
2022-10-22T14:56:12.564Z,0.80
2022-10-22T14:59:55.924Z,0.80
2022-10-22T15:03:38.772Z,1.13
2022-10-22T15:07:21.527Z,0.83
2022-10-22T15:11:05.767Z,0.80
2022-10-22T15:14:49.801Z,0.90
2022-10-22T15:18:32.469Z,1.10
2022-10-22T15:22:17.665Z,0.90
2022-10-22T15:26:00.349Z,1.10
2022-10-22T15:29:43.651Z,1.00
2022-10-22T15:33:28.879Z,1.10
2022-10-22T15:37:13.383Z,0.90
2022-10-22T15:41:04.547Z,1.10
2022-10-22T15:44:48.439Z,1.00
2022-10-22T15:48:33.576Z,1.00
2022-10-22T15:52:16.183Z,1.50
2022-10-22T15:55:58.846Z,1.60
2022-10-22T15:59:41.489Z,1.40
2022-10-22T16:03:24.193Z,1.10
2022-10-22T16:07:08.457Z,1.10
2022-10-22T16:10:51.168Z,1.10
2022-10-22T16:14:33.800Z,1.40
2022-10-22T16:18:16.437Z,1.70
2022-10-22T16:22:02.085Z,2.50
2022-10-22T16:25:46.227Z,2.77
2022-10-22T16:29:28.847Z,2.40
2022-10-22T16:33:11.726Z,2.43
2022-10-22T16:36:56.423Z,2.50
2022-10-22T16:40:39.203Z,2.80
2022-10-22T16:44:23.669Z,2.53
2022-10-22T16:48:06.636Z,2.90
2022-10-22T16:51:49.270Z,2.30
2022-10-22T16:55:32.112Z,2.30
2022-10-22T16:59:14.741Z,2.40
2022-10-22T17:02:58.921Z,2.27
2022-10-22T17:06:41.554Z,2.77
2022-10-22T17:10:24.277Z,5.50
2022-10-22T17:14:07.112Z,4.47
2022-10-22T17:17:53.684Z,6.20
2022-10-22T17:21:37.730Z,5.20
2022-10-22T17:25:24.074Z,9.03
2022-10-22T17:29:06.726Z,10.17
2022-10-22T17:32:49.462Z,6.80
2022-10-22T17:36:35.716Z,6.00
2022-10-22T17:40:21.782Z,5.73
2022-10-22T17:44:06.707Z,4.90
2022-10-22T17:47:49.358Z,4.77
2022-10-22T17:51:33.099Z,8.20
2022-10-22T17:55:15.779Z,8.67
2022-10-22T17:59:00.714Z,7.17
2022-10-22T18:02:43.714Z,6.00
2022-10-22T18:06:26.779Z,4.80
2022-10-22T18:10:10.717Z,5.53
2022-10-22T18:13:55.951Z,5.50
2022-10-22T18:17:41.428Z,5.87
2022-10-22T18:21:27.100Z,5.00
2022-10-22T18:25:10.795Z,5.23
2022-10-22T18:28:53.442Z,5.20
2022-10-22T18:32:36.160Z,4.87
2022-10-22T18:36:22.723Z,5.10
2022-10-22T18:40:08.121Z,5.17
2022-10-22T18:43:52.030Z,4.93
2022-10-22T18:47:34.662Z,5.70
2022-10-22T18:51:17.643Z,4.30
2022-10-22T18:55:01.711Z,4.70
2022-10-22T18:58:47.663Z,5.33
2022-10-22T19:02:30.323Z,5.33
2022-10-22T19:06:14.345Z,5.20
2022-10-22T19:09:59.190Z,5.93
2022-10-22T19:13:43.867Z,5.70
2022-10-22T19:17:26.503Z,5.10
2022-10-22T19:21:09.622Z,4.60
2022-10-22T19:24:52.334Z,5.07
2022-10-22T19:28:34.982Z,4.80
2022-10-22T19:32:20.170Z,4.70
2022-10-22T19:36:05.523Z,5.33
2022-10-22T19:39:50.014Z,5.23
2022-10-22T19:43:32.626Z,8.43
2022-10-22T19:47:16.028Z,8.27
2022-10-22T19:51:02.723Z,7.30
2022-10-22T19:54:45.863Z,7.20
2022-10-22T19:58:29.098Z,7.13
2022-10-22T20:02:14.614Z,6.67
2022-10-22T20:05:57.264Z,6.60
2022-10-22T20:09:42.313Z,5.60
2022-10-22T20:13:25.067Z,5.97
2022-10-22T20:17:07.780Z,5.30
2022-10-22T20:20:51.014Z,4.30
2022-10-22T20:24:33.668Z,4.07
2022-10-22T20:28:17.877Z,4.67
2022-10-22T20:32:02.372Z,4.70
2022-10-22T20:35:47.018Z,5.50
2022-10-22T20:39:29.675Z,5.70
2022-10-22T20:43:12.510Z,5.43
2022-10-22T20:50:40.225Z,5.57
2022-10-22T20:54:22.883Z,4.70
2022-10-22T20:58:05.589Z,5.13
2022-10-22T21:01:50.177Z,4.40
2022-10-22T21:05:34.645Z,4.40
2022-10-22T21:09:17.423Z,5.47
2022-10-22T21:13:00.391Z,4.60
2022-10-22T21:16:43.812Z,7.70
2022-10-22T21:20:26.471Z,5.57
2022-10-22T21:24:10.691Z,4.90
2022-10-22T21:27:53.302Z,4.63
2022-10-22T21:31:36.503Z,4.90
2022-10-22T21:35:19.205Z,4.60
2022-10-22T21:39:02.204Z,4.60
2022-10-22T21:42:46.606Z,4.07
2022-10-22T21:46:29.837Z,4.30
2022-10-22T21:50:12.469Z,5.00
2022-10-22T21:53:55.738Z,4.30
2022-10-22T21:57:38.543Z,3.90
2022-10-22T22:01:22.797Z,4.07
2022-10-22T22:05:05.865Z,3.80
2022-10-22T22:08:48.794Z,3.77
2022-10-22T22:12:31.541Z,3.47
2022-10-22T22:16:16.376Z,3.40
2022-10-22T22:20:00.667Z,3.60
2022-10-22T22:23:45.581Z,3.70
2022-10-22T22:27:28.296Z,4.00
2022-10-22T22:31:15.273Z,3.13
2022-10-22T22:35:01.924Z,3.63
2022-10-22T22:38:44.539Z,3.00
2022-10-22T22:42:27.349Z,2.70
2022-10-22T22:46:13.086Z,2.70
2022-10-22T22:49:55.749Z,2.50
2022-10-22T22:53:39.793Z,2.93
2022-10-22T22:57:22.409Z,2.63
2022-10-22T23:01:16.943Z,2.70
2022-10-22T23:04:59.867Z,2.40
2022-10-22T23:08:44.206Z,2.23
2022-10-22T23:12:26.909Z,2.80
2022-10-22T23:16:11.016Z,2.50
2022-10-22T23:19:53.652Z,3.20
2022-10-22T23:23:36.336Z,3.30
2022-10-22T23:27:20.378Z,3.20
2022-10-22T23:31:05.047Z,2.90
2022-10-22T23:34:47.706Z,2.83
2022-10-22T23:38:30.417Z,3.10
2022-10-22T23:42:13.048Z,2.97
2022-10-22T23:45:57.088Z,2.80
2022-10-22T23:49:39.751Z,2.37
2022-10-22T23:53:22.431Z,2.57
2022-10-22T23:57:05.107Z,2.73
